Time;durP1;ratioP1;P1;durP2;ratioP2;P2;SDS_P1;SDS_P2;PMS_P1;PMS_P2;Temp;Humidity;BMP_temperature;BMP_pressure;BME280_temperature;BME280_humidity;BME280_pressure;Samples;Min_cycle;Max_cycle;Signal;HPM_P1;HPM_P2
2023/06/23 00:01:52;;;;;;;;;;;;;;;;;;5093847;28;19923;-58
2023/06/23 00:04:19;;;;;;;;;;;;;;;;;;5075070;28;19920;-58
2023/06/23 00:06:45;;;;;;;;;;;;;;;;;;5093882;28;20418;-57
2023/06/23 00:09:14;;;;;;;;;;;;;;;;;;5093868;28;20024;-58
2023/06/23 00:11:40;;;;;;;;;;;;;;;;;;5093314;28;19920;-58
2023/06/23 00:14:06;;;;;;;;;;;;;;;;;;5093573;28;20392;-57
2023/06/23 00:16:32;;;;;;;;;;;;;;;;;;5093260;28;19920;-58
2023/06/23 00:18:58;;;;;;;;;;;;;;;;;;5058046;28;19928;-57
2023/06/23 00:21:24;;;;;;;;;;;;;;;;;;5093349;28;19920;-57
2023/06/23 00:23:50;;;;;;;;;;;;;;;;;;5093393;28;19955;-57
2023/06/23 00:26:17;;;;;;;;;;;;;;;;;;5082813;28;19972;-58
2023/06/23 00:28:43;;;;;;;;;;;;;;;;;;5073060;28;19921;-57
2023/06/23 00:31:08;;;;;;;;;;;;;;;;;;5086419;28;20365;-57
2023/06/23 00:33:34;;;;;;;;;;;;;;;;;;5092484;28;19993;-58
2023/06/23 00:36:00;;;;;;;;;;;;;;;;;;5092884;28;19924;-58
2023/06/23 00:38:27;;;;;;;;;;;;;;;;;;5091853;28;19924;-58
2023/06/23 00:40:53;;;;;;;;;;;;;;;;;;5092425;28;19920;-58
2023/06/23 00:43:19;;;;;;;;;;;;;;;;;;5092873;28;19920;-57
2023/06/23 00:45:45;;;;;;;;;;;;;;;;;;5092977;28;19920;-57
2023/06/23 00:48:14;;;;;;;;;;;;;;;;;;5092517;28;19928;-58
2023/06/23 00:50:40;;;;;;;;;;;;;;;;;;5092845;28;20579;-56
2023/06/23 00:53:06;;;;;;;;;;;;;;;;;;5092742;28;19971;-56
2023/06/23 00:55:32;;;;;;;;;;;;;;;;;;5091752;28;19932;-57
2023/06/23 00:57:58;;;;;;;;;;;;;;;;;;5092978;28;19924;-57
2023/06/23 01:00:24;;;;;;;;;;;;;;;;;;5092667;28;19920;-57
2023/06/23 01:02:50;;;;;;;;;;;;;;;;;;5092321;28;19927;-58
2023/06/23 01:05:16;;;;;;;;;;;;;;;;;;5092335;28;20161;-57
2023/06/23 01:07:42;;;;;;;;;;;;;;;;;;5092512;28;19924;-57
2023/06/23 01:10:08;;;;;;;;;;;;;;;;;;5091887;28;19951;-58
2023/06/23 01:12:34;;;;;;;;;;;;;;;;;;5074369;28;19924;-58
2023/06/23 01:15:00;;;;;;;;;;;;;;;;;;5092258;28;19924;-58
2023/06/23 01:17:26;;;;;;;;;;;;;;;;;;5091970;28;19997;-58
2023/06/23 01:19:53;;;;;;;;;;;;;;;;;;5092510;28;20034;-58
2023/06/23 01:22:18;;;;;;;;;;;;;;;;;;5092370;28;19973;-57
2023/06/23 01:24:44;;;;;;;;;;;;;;;;;;5091557;28;19924;-58
2023/06/23 01:27:10;;;;;;;;;;;;;;;;;;5074868;28;20039;-57
2023/06/23 01:29:38;;;;;;;;;;;;;;;;;;5072395;28;19925;-57
2023/06/23 01:32:04;;;;;;;;;;;;;;;;;;5091537;28;19967;-57
2023/06/23 01:34:30;;;;;;;;;;;;;;;;;;5092035;28;20537;-57
2023/06/23 01:36:56;;;;;;;;;;;;;;;;;;5073660;28;19958;-57
2023/06/23 01:39:23;;;;;;;;;;;;;;;;;;5091679;28;20020;-57
2023/06/23 01:41:48;;;;;;;;;;;;;;;;;;5091967;28;19920;-57
2023/06/23 01:44:14;;;;;;;;;;;;;;;;;;5091519;28;19924;-57
2023/06/23 01:46:40;;;;;;;;;;;;;;;;;;5091400;28;19927;-58
2023/06/23 01:49:07;;;;;;;;;;;;;;;;;;5091218;28;19920;-57
2023/06/23 01:51:33;;;;;;;;;;;;;;;;;;5091706;28;20294;-58
2023/06/23 01:53:59;;;;;;;;;;;;;;;;;;5091092;28;19928;-58
2023/06/23 01:56:25;;;;;;;;;;;;;;;;;;5091669;28;19923;-57
2023/06/23 01:58:51;;;;;;;;;;;;;;;;;;5091452;28;19943;-58
2023/06/23 02:01:17;;;;;;;;;;;;;;;;;;5090624;28;19931;-58
2023/06/23 02:03:43;;;;;;;;;;;;;;;;;;5091316;28;19920;-57
2023/06/23 02:06:09;;;;;;;;;;;;;;;;;;5091413;28;19920;-57
2023/06/23 02:08:34;;;;;;;;;;;;;;;;;;5091056;28;19947;-58
2023/06/23 02:11:00;;;;;;;;;;;;;;;;;;5073265;28;20007;-57
2023/06/23 02:13:26;;;;;;;;;;;;;;;;;;5091294;28;19920;-57
2023/06/23 02:15:52;;;;;;;;;;;;;;;;;;5073100;28;19920;-58
2023/06/23 02:18:18;;;;;;;;;;;;;;;;;;5090782;28;19924;-58
2023/06/23 02:20:44;;;;;;;;;;;;;;;;;;5091276;28;19920;-56
2023/06/23 02:23:10;;;;;;;;;;;;;;;;;;5091082;28;19924;-56
2023/06/23 02:25:36;;;;;;;;;;;;;;;;;;5086473;28;19928;-57
2023/06/23 02:28:02;;;;;;;;;;;;;;;;;;5052947;28;19920;-58
2023/06/23 02:30:28;;;;;;;;;;;;;;;;;;5078732;28;19920;-58
2023/06/23 02:32:56;;;;;;;;;;;;;;;;;;5090572;28;19920;-58
2023/06/23 02:35:22;;;;;;;;;;;;;;;;;;5090727;28;19928;-58
2023/06/23 02:37:48;;;;;;;;;;;;;;;;;;5091089;28;19934;-58
2023/06/23 02:40:16;;;;;;;;;;;;;;;;;;5090532;28;19970;-56
2023/06/23 02:42:42;;;;;;;;;;;;;;;;;;5090927;28;19935;-58
2023/06/23 02:45:08;;;;;;;;;;;;;;;;;;5090815;28;19923;-58
2023/06/23 02:47:34;;;;;;;;;;;;;;;;;;5072170;28;19947;-57
2023/06/23 02:50:00;;;;;;;;;;;;;;;;;;5090777;28;19920;-58
2023/06/23 02:52:26;;;;;;;;;;;;;;;;;;5090435;28;20358;-57
2023/06/23 02:54:52;;;;;;;;;;;;;;;;;;5090005;28;20023;-57
2023/06/23 02:57:18;;;;;;;;;;;;;;;;;;5090787;28;19990;-57
2023/06/23 02:59:44;;;;;;;;;;;;;;;;;;5090409;28;19967;-57
2023/06/23 03:02:10;;;;;;;;;;;;;;;;;;5089319;28;19931;-58
2023/06/23 03:04:39;;;;;;;;;;;;;;;;;;5090488;28;20462;-58
2023/06/23 03:07:05;;;;;;;;;;;;;;;;;;5090254;28;19971;-57
2023/06/23 03:09:31;;;;;;;;;;;;;;;;;;5090393;28;20441;-58
2023/06/23 03:11:57;;;;;;;;;;;;;;;;;;5090720;28;19924;-58
2023/06/23 03:14:23;;;;;;;;;;;;;;;;;;5090360;28;19930;-58
2023/06/23 03:16:49;;;;;;;;;;;;;;;;;;5089999;28;19924;-58
2023/06/23 03:19:15;;;;;;;;;;;;;;;;;;5090452;28;19982;-58
2023/06/23 03:21:41;;;;;;;;;;;;;;;;;;5090472;28;19920;-57
2023/06/23 03:24:07;;;;;;;;;;;;;;;;;;5090008;28;19924;-57
2023/06/23 03:26:36;;;;;;;;;;;;;;;;;;5078449;28;19932;-57
2023/06/23 03:29:03;;;;;;;;;;;;;;;;;;5070409;28;20658;-57
2023/06/23 03:31:29;;;;;;;;;;;;;;;;;;5085980;28;19920;-57
2023/06/23 03:33:55;;;;;;;;;;;;;;;;;;5090203;28;19931;-57
2023/06/23 03:36:21;;;;;;;;;;;;;;;;;;5090273;28;19931;-57
2023/06/23 03:38:47;;;;;;;;;;;;;;;;;;5089897;28;19920;-58
2023/06/23 03:41:13;;;;;;;;;;;;;;;;;;5090363;28;19920;-57
2023/06/23 03:43:39;;;;;;;;;;;;;;;;;;5090310;28;19924;-57
2023/06/23 03:46:05;;;;;;;;;;;;;;;;;;5089575;28;19920;-58
2023/06/23 03:48:31;;;;;;;;;;;;;;;;;;5090333;28;19955;-58
2023/06/23 03:50:57;;;;;;;;;;;;;;;;;;5089782;28;19924;-58
2023/06/23 03:53:23;;;;;;;;;;;;;;;;;;5089510;28;19920;-58
2023/06/23 03:55:49;;;;;;;;;;;;;;;;;;5090027;28;19955;-58
2023/06/23 03:58:14;;;;;;;;;;;;;;;;;;5090023;28;20006;-57
2023/06/23 04:00:40;;;;;;;;;;;;;;;;;;5090019;28;19923;-57
2023/06/23 04:03:06;;;;;;;;;;;;;;;;;;5090460;28;19993;-57
2023/06/23 04:05:32;;;;;;;;;;;;;;;;;;5072133;28;19959;-57
2023/06/23 04:07:59;;;;;;;;;;;;;;;;;;5090080;28;20370;-55
2023/06/23 04:10:25;;;;;;;;;;;;;;;;;;5090516;28;20353;-58
2023/06/23 04:12:51;;;;;;;;;;;;;;;;;;5092045;28;19932;-57
2023/06/23 04:15:18;;;;;;;;;;;;;;;;;;5093288;28;19928;-57
2023/06/23 04:17:44;;;;;;;;;;;;;;;;;;5093588;28;19920;-58
2023/06/23 04:20:10;;;;;;;;;;;;;;;;;;5093745;28;19927;-57
2023/06/23 04:22:36;;;;;;;;;;;;;;;;;;5093487;28;19954;-57
2023/06/23 04:25:02;;;;;;;;;;;;;;;;;;5075352;28;19928;-57
2023/06/23 04:27:28;;;;;;;;;;;;;;;;;;5074386;28;20006;-58
2023/06/23 04:29:54;;;;;;;;;;;;;;;;;;5075577;28;19976;-58
2023/06/23 04:32:20;;;;;;;;;;;;;;;;;;5075553;28;20011;-58
2023/06/23 04:34:46;;;;;;;;;;;;;;;;;;5093182;28;20019;-58
2023/06/23 04:37:12;;;;;;;;;;;;;;;;;;5092922;28;19928;-57
2023/06/23 04:39:38;;;;;;;;;;;;;;;;;;5093306;28;20260;-57
2023/06/23 04:42:04;;;;;;;;;;;;;;;;;;5093410;28;19998;-57
2023/06/23 04:44:30;;;;;;;;;;;;;;;;;;5092913;28;19955;-58
2023/06/23 04:46:56;;;;;;;;;;;;;;;;;;5093401;28;19931;-57
2023/06/23 04:49:22;;;;;;;;;;;;;;;;;;5093271;28;19924;-57
2023/06/23 04:51:48;;;;;;;;;;;;;;;;;;5092402;28;20019;-57
2023/06/23 04:54:13;;;;;;;;;;;;;;;;;;5093162;28;19924;-57
2023/06/23 04:56:39;;;;;;;;;;;;;;;;;;5093314;28;19920;-57
2023/06/23 04:59:05;;;;;;;;;;;;;;;;;;5092660;28;19924;-57
2023/06/23 05:01:31;;;;;;;;;;;;;;;;;;5093364;28;19927;-57
2023/06/23 05:03:57;;;;;;;;;;;;;;;;;;5093074;28;19943;-58
2023/06/23 05:06:23;;;;;;;;;;;;;;;;;;5092688;28;19924;-58
2023/06/23 05:08:49;;;;;;;;;;;;;;;;;;5074754;28;19989;-57
2023/06/23 05:11:15;;;;;;;;;;;;;;;;;;5093179;28;19920;-58
2023/06/23 05:13:41;;;;;;;;;;;;;;;;;;5092073;28;20078;-58
2023/06/23 05:16:10;;;;;;;;;;;;;;;;;;5092851;28;20007;-57
2023/06/23 05:18:36;;;;;;;;;;;;;;;;;;5092872;28;19920;-57
2023/06/23 05:21:02;;;;;;;;;;;;;;;;;;5092029;28;19931;-59
2023/06/23 05:23:28;;;;;;;;;;;;;;;;;;5090959;28;19924;-58
2023/06/23 05:25:56;;;;;;;;;;;;;;;;;;5080901;28;19942;-58
2023/06/23 05:28:24;;;;;;;;;;;;;;;;;;5080564;28;19924;-55
2023/06/23 05:30:50;;;;;;;;;;;;;;;;;;5092034;28;19920;-60
2023/06/23 05:33:16;;;;;;;;;;;;;;;;;;5091824;28;19920;-59
2023/06/23 05:35:42;;;;;;;;;;;;;;;;;;5092014;28;20052;-60
2023/06/23 05:38:08;;;;;;;;;;;;;;;;;;5073242;28;19920;-58
2023/06/23 05:40:34;;;;;;;;;;;;;;;;;;5092106;28;19924;-59
2023/06/23 05:43:00;;;;;;;;;;;;;;;;;;5092201;28;19924;-59
2023/06/23 05:45:26;;;;;;;;;;;;;;;;;;5091107;28;19970;-60
2023/06/23 05:47:52;;;;;;;;;;;;;;;;;;5092116;28;19989;-59
2023/06/23 05:50:18;;;;;;;;;;;;;;;;;;5091711;28;20003;-59
2023/06/23 05:52:44;;;;;;;;;;;;;;;;;;5091463;28;19931;-58
2023/06/23 05:55:10;;;;;;;;;;;;;;;;;;5091648;28;19924;-57
2023/06/23 05:57:36;;;;;;;;;;;;;;;;;;5091792;28;19951;-59
2023/06/23 06:00:03;;;;;;;;;;;;;;;;;;5091459;28;20014;-58
2023/06/23 06:02:29;;;;;;;;;;;;;;;;;;5091503;28;20286;-60
2023/06/23 06:04:54;;;;;;;;;;;;;;;;;;5091682;28;19969;-60
2023/06/23 06:07:20;;;;;;;;;;;;;;;;;;5090930;28;19947;-60
2023/06/23 06:09:46;;;;;;;;;;;;;;;;;;5091573;28;19924;-59
2023/06/23 06:12:12;;;;;;;;;;;;;;;;;;5091180;28;19954;-56
2023/06/23 06:14:38;;;;;;;;;;;;;;;;;;5090579;28;19931;-59
2023/06/23 06:17:04;;;;;;;;;;;;;;;;;;5091289;28;19927;-61
2023/06/23 06:19:30;;;;;;;;;;;;;;;;;;5091138;28;19966;-60
2023/06/23 06:21:56;;;;;;;;;;;;;;;;;;5090715;28;19970;-61
2023/06/23 06:24:22;;;;;;;;;;;;;;;;;;5091491;28;19928;-58
2023/06/23 06:26:49;;;;;;;;;;;;;;;;;;5076857;28;19944;-57
2023/06/23 06:29:18;;;;;;;;;;;;;;;;;;5055118;28;19928;-56
2023/06/23 06:31:45;;;;;;;;;;;;;;;;;;5074806;28;19935;-62
2023/06/23 06:34:10;;;;;;;;;;;;;;;;;;5080173;28;19963;-63
2023/06/23 06:36:36;;;;;;;;;;;;;;;;;;5088935;28;19962;-63
2023/06/23 06:39:02;;;;;;;;;;;;;;;;;;5090783;28;19998;-63
2023/06/23 06:41:28;;;;;;;;;;;;;;;;;;5090604;28;19920;-63
2023/06/23 06:43:56;;;;;;;;;;;;;;;;;;5083584;28;19928;-63
2023/06/23 06:46:21;;;;;;;;;;;;;;;;;;5085444;28;19950;-64
2023/06/23 06:48:50;;;;;;;;;;;;;;;;;;5090255;28;19920;-63
2023/06/23 06:51:17;;;;;;;;;;;;;;;;;;5088785;28;20007;-64
2023/06/23 06:53:43;;;;;;;;;;;;;;;;;;5072300;28;19924;-63
2023/06/23 06:56:09;;;;;;;;;;;;;;;;;;5089733;28;19927;-62
2023/06/23 06:58:35;;;;;;;;;;;;;;;;;;5089948;28;19924;-64
2023/06/23 07:01:01;;;;;;;;;;;;;;;;;;5085851;28;19986;-60
2023/06/23 07:03:27;;;;;;;;;;;;;;;;;;5086730;28;19931;-61
2023/06/23 07:05:53;;;;;;;;;;;;;;;;;;5088188;28;19963;-59
2023/06/23 07:08:20;;;;;;;;;;;;;;;;;;5090432;28;20057;-59
2023/06/23 07:10:45;;;;;;;;;;;;;;;;;;5066151;28;19931;-59
2023/06/23 07:13:11;;;;;;;;;;;;;;;;;;5085577;28;19928;-57
2023/06/23 07:15:38;;;;;;;;;;;;;;;;;;5085290;28;19924;-58
2023/06/23 07:18:04;;;;;;;;;;;;;;;;;;5089453;28;19931;-61
2023/06/23 07:20:30;;;;;;;;;;;;;;;;;;5089572;28;19924;-61
2023/06/23 07:22:56;;;;;;;;;;;;;;;;;;5089985;28;19999;-61
2023/06/23 07:25:22;;;;;;;;;;;;;;;;;;5087804;28;20014;-58
2023/06/23 07:27:48;;;;;;;;;;;;;;;;;;5080771;28;19924;-59
2023/06/23 07:30:14;;;;;;;;;;;;;;;;;;5089859;28;19924;-59
2023/06/23 07:32:40;;;;;;;;;;;;;;;;;;5090049;28;20456;-60
2023/06/23 07:35:06;;;;;;;;;;;;;;;;;;5089269;28;19935;-61
2023/06/23 07:37:32;;;;;;;;;;;;;;;;;;5089534;28;19920;-61
2023/06/23 07:39:58;;;;;;;;;;;;;;;;;;5071221;28;20015;-61
2023/06/23 07:42:26;;;;;;;;;;;;;;;;;;5089441;28;20605;-61
2023/06/23 07:44:52;;;;;;;;;;;;;;;;;;5089781;28;19974;-62
2023/06/23 07:47:18;;;;;;;;;;;;;;;;;;5090378;28;19924;-61
2023/06/23 07:49:44;;;;;;;;;;;;;;;;;;5069258;28;19943;-60
2023/06/23 07:52:10;;;;;;;;;;;;;;;;;;5093421;28;19967;-61
2023/06/23 07:54:36;;;;;;;;;;;;;;;;;;5093572;28;19989;-60
2023/06/23 07:57:02;;;;;;;;;;;;;;;;;;5088337;28;19928;-60
2023/06/23 07:59:28;;;;;;;;;;;;;;;;;;5093565;28;19931;-60
2023/06/23 08:01:54;;;;;;;;;;;;;;;;;;5093693;28;19920;-59
2023/06/23 08:04:20;;;;;;;;;;;;;;;;;;5093176;28;19989;-61
2023/06/23 08:06:46;;;;;;;;;;;;;;;;;;5093882;28;19924;-60
2023/06/23 08:09:12;;;;;;;;;;;;;;;;;;5093572;28;19931;-61
2023/06/23 08:11:38;;;;;;;;;;;;;;;;;;5092982;28;19924;-61
2023/06/23 08:14:04;;;;;;;;;;;;;;;;;;5092989;28;19935;-60
2023/06/23 08:16:30;;;;;;;;;;;;;;;;;;5087759;28;19920;-60
2023/06/23 08:18:56;;;;;;;;;;;;;;;;;;5092681;28;19970;-58
2023/06/23 08:21:22;;;;;;;;;;;;;;;;;;5092961;28;19989;-60
2023/06/23 08:23:48;;;;;;;;;;;;;;;;;;5093325;28;19959;-61
2023/06/23 08:26:14;;;;;;;;;;;;;;;;;;5091780;28;20382;-59
2023/06/23 08:28:40;;;;;;;;;;;;;;;;;;5091972;28;19930;-57
2023/06/23 08:31:06;;;;;;;;;;;;;;;;;;5082633;28;19990;-59
2023/06/23 08:33:32;;;;;;;;;;;;;;;;;;5078289;28;19971;-58
2023/06/23 08:35:58;;;;;;;;;;;;;;;;;;5051095;28;20314;-59
2023/06/23 08:38:25;;;;;;;;;;;;;;;;;;5060099;28;19928;-60
2023/06/23 08:40:51;;;;;;;;;;;;;;;;;;5088690;28;20966;-59
2023/06/23 08:43:17;;;;;;;;;;;;;;;;;;5050897;28;20298;-59
2023/06/23 08:45:44;;;;;;;;;;;;;;;;;;5064180;28;19935;-60
2023/06/23 08:48:10;;;;;;;;;;;;;;;;;;5082214;28;19932;-57
2023/06/23 08:50:36;;;;;;;;;;;;;;;;;;5039815;28;19970;-59
2023/06/23 08:53:02;;;;;;;;;;;;;;;;;;5086126;28;20362;-59
2023/06/23 08:55:28;;;;;;;;;;;;;;;;;;5091504;28;19928;-59
2023/06/23 08:57:56;;;;;;;;;;;;;;;;;;5091385;28;19920;-61
2023/06/23 09:00:22;;;;;;;;;;;;;;;;;;5088063;28;19920;-58
2023/06/23 09:02:48;;;;;;;;;;;;;;;;;;5091594;28;19973;-60
2023/06/23 09:05:14;;;;;;;;;;;;;;;;;;5060658;28;19981;-58
2023/06/23 09:07:42;;;;;;;;;;;;;;;;;;5081036;28;19924;-57
2023/06/23 09:10:08;;;;;;;;;;;;;;;;;;5076840;28;19931;-59
2023/06/23 09:12:34;;;;;;;;;;;;;;;;;;5081203;28;19924;-58
2023/06/23 09:15:00;;;;;;;;;;;;;;;;;;5079195;28;19962;-60
2023/06/23 09:17:26;;;;;;;;;;;;;;;;;;5087427;28;19920;-60
2023/06/23 09:19:53;;;;;;;;;;;;;;;;;;5087864;28;19971;-60
2023/06/23 09:22:22;;;;;;;;;;;;;;;;;;5080030;28;20322;-59
2023/06/23 09:24:49;;;;;;;;;;;;;;;;;;5089713;28;20275;-60
2023/06/23 09:27:15;;;;;;;;;;;;;;;;;;5086688;28;20343;-58
2023/06/23 09:29:41;;;;;;;;;;;;;;;;;;5081186;28;20011;-59
2023/06/23 09:32:09;;;;;;;;;;;;;;;;;;5089230;28;20058;-59
2023/06/23 09:34:35;;;;;;;;;;;;;;;;;;5090626;28;19924;-58
2023/06/23 09:37:01;;;;;;;;;;;;;;;;;;5079302;28;19924;-62
2023/06/23 09:39:27;;;;;;;;;;;;;;;;;;5078307;28;19931;-60
2023/06/23 09:41:53;;;;;;;;;;;;;;;;;;5076991;28;19925;-59
2023/06/23 09:44:18;;;;;;;;;;;;;;;;;;5066599;28;19920;-59
2023/06/23 09:46:44;;;;;;;;;;;;;;;;;;5090366;28;19920;-58
2023/06/23 09:49:10;;;;;;;;;;;;;;;;;;5071959;28;19964;-59
2023/06/23 09:51:36;;;;;;;;;;;;;;;;;;5082871;28;19924;-58
2023/06/23 09:54:03;;;;;;;;;;;;;;;;;;5088908;28;20367;-59
2023/06/23 09:56:29;;;;;;;;;;;;;;;;;;5077213;28;20268;-60
2023/06/23 09:58:54;;;;;;;;;;;;;;;;;;5080577;28;19920;-60
2023/06/23 10:01:20;;;;;;;;;;;;;;;;;;5043599;28;19924;-61
2023/06/23 10:03:46;;;;;;;;;;;;;;;;;;5086018;28;19920;-59
2023/06/23 10:06:12;;;;;;;;;;;;;;;;;;5089189;28;19931;-58
2023/06/23 10:08:39;;;;;;;;;;;;;;;;;;5080450;28;19920;-59
2023/06/23 10:11:05;;;;;;;;;;;;;;;;;;5088908;28;19924;-59
2023/06/23 10:13:31;;;;;;;;;;;;;;;;;;5088845;28;19930;-58
2023/06/23 10:15:57;;;;;;;;;;;;;;;;;;5079115;28;19924;-59
2023/06/23 10:18:24;;;;;;;;;;;;;;;;;;5080813;28;19920;-60
2023/06/23 10:20:50;;;;;;;;;;;;;;;;;;5073573;28;19986;-60
2023/06/23 10:23:15;;;;;;;;;;;;;;;;;;5089009;28;20617;-59
2023/06/23 10:25:41;;;;;;;;;;;;;;;;;;5084367;28;19970;-62
2023/06/23 10:28:08;;;;;;;;;;;;;;;;;;5085699;28;19943;-59
2023/06/23 10:30:34;;;;;;;;;;;;;;;;;;5086147;28;19920;-59
2023/06/23 10:33:00;;;;;;;;;;;;;;;;;;5088777;28;19923;-60
2023/06/23 10:35:26;;;;;;;;;;;;;;;;;;5088863;28;19977;-59
2023/06/23 10:37:52;;;;;;;;;;;;;;;;;;5089260;28;19993;-60
2023/06/23 10:40:19;;;;;;;;;;;;;;;;;;5088959;28;19924;-60
2023/06/23 10:42:45;;;;;;;;;;;;;;;;;;5088539;28;19969;-60
2023/06/23 10:45:11;;;;;;;;;;;;;;;;;;5089242;28;19928;-59
2023/06/23 10:47:37;;;;;;;;;;;;;;;;;;5088573;28;19924;-59
2023/06/23 10:50:03;;;;;;;;;;;;;;;;;;5088850;28;19927;-59
2023/06/23 10:52:29;;;;;;;;;;;;;;;;;;5070654;28;19924;-59
2023/06/23 10:54:55;;;;;;;;;;;;;;;;;;5088684;28;19924;-59
2023/06/23 10:57:21;;;;;;;;;;;;;;;;;;5089805;28;19920;-60
2023/06/23 10:59:47;;;;;;;;;;;;;;;;;;5088676;28;19920;-60
2023/06/23 11:02:13;;;;;;;;;;;;;;;;;;5088318;28;19972;-60
2023/06/23 11:04:41;;;;;;;;;;;;;;;;;;5089711;28;19943;-58
2023/06/23 11:07:07;;;;;;;;;;;;;;;;;;5089961;28;20331;-60
2023/06/23 11:09:33;;;;;;;;;;;;;;;;;;5089490;28;19924;-59
2023/06/23 11:11:59;;;;;;;;;;;;;;;;;;5089016;28;20381;-59
2023/06/23 11:14:25;;;;;;;;;;;;;;;;;;5089404;28;20023;-58
2023/06/23 11:16:51;;;;;;;;;;;;;;;;;;5071015;28;20003;-59
2023/06/23 11:19:17;;;;;;;;;;;;;;;;;;5089859;28;19982;-58
2023/06/23 11:21:44;;;;;;;;;;;;;;;;;;5089447;28;19924;-59
2023/06/23 11:24:10;;;;;;;;;;;;;;;;;;5093215;28;19958;-59
2023/06/23 11:26:36;;;;;;;;;;;;;;;;;;5093565;28;19924;-60
2023/06/23 11:29:02;;;;;;;;;;;;;;;;;;5080247;28;19928;-60
2023/06/23 11:31:28;;;;;;;;;;;;;;;;;;5079319;28;19931;-59
2023/06/23 11:33:54;;;;;;;;;;;;;;;;;;5090442;28;19924;-58
2023/06/23 11:36:20;;;;;;;;;;;;;;;;;;5085689;28;19927;-54
2023/06/23 11:38:46;;;;;;;;;;;;;;;;;;5089149;28;19981;-59
2023/06/23 11:41:12;;;;;;;;;;;;;;;;;;5092875;28;19936;-57
2023/06/23 11:43:38;;;;;;;;;;;;;;;;;;5091732;28;19931;-59
2023/06/23 11:46:06;;;;;;;;;;;;;;;;;;5092264;28;19924;-59
2023/06/23 11:48:32;;;;;;;;;;;;;;;;;;5092903;28;19924;-57
2023/06/23 11:50:58;;;;;;;;;;;;;;;;;;5090772;28;19931;-57
2023/06/23 11:53:24;;;;;;;;;;;;;;;;;;5086441;28;20394;-57
2023/06/23 11:55:50;;;;;;;;;;;;;;;;;;5089845;28;19931;-56
2023/06/23 11:58:16;;;;;;;;;;;;;;;;;;5092514;28;19920;-60
2023/06/23 12:00:42;;;;;;;;;;;;;;;;;;5081489;28;19931;-61
2023/06/23 12:03:08;;;;;;;;;;;;;;;;;;5092618;28;19920;-60
2023/06/23 12:05:34;;;;;;;;;;;;;;;;;;5060863;28;19974;-58
2023/06/23 12:08:00;;;;;;;;;;;;;;;;;;5087834;28;19989;-59
2023/06/23 12:10:27;;;;;;;;;;;;;;;;;;5083539;28;19965;-60
2023/06/23 12:12:53;;;;;;;;;;;;;;;;;;5068201;28;20325;-58
2023/06/23 12:15:19;;;;;;;;;;;;;;;;;;5085212;28;19938;-61
2023/06/23 12:17:45;;;;;;;;;;;;;;;;;;5079066;28;19920;-61
2023/06/23 12:20:11;;;;;;;;;;;;;;;;;;5087666;28;19971;-60
2023/06/23 12:22:37;;;;;;;;;;;;;;;;;;5081791;28;19928;-59
2023/06/23 12:25:04;;;;;;;;;;;;;;;;;;5078158;28;19921;-61
2023/06/23 12:27:30;;;;;;;;;;;;;;;;;;5089179;28;19928;-61
2023/06/23 12:29:56;;;;;;;;;;;;;;;;;;5092680;28;20499;-59
2023/06/23 12:32:22;;;;;;;;;;;;;;;;;;5091857;28;20011;-59
2023/06/23 12:34:48;;;;;;;;;;;;;;;;;;5089231;28;20039;-60
2023/06/23 12:37:14;;;;;;;;;;;;;;;;;;5089127;28;20010;-60
2023/06/23 12:39:40;;;;;;;;;;;;;;;;;;5087716;28;20004;-60
2023/06/23 12:42:06;;;;;;;;;;;;;;;;;;5074917;28;20184;-59
2023/06/23 12:44:32;;;;;;;;;;;;;;;;;;5085675;28;19928;-58
2023/06/23 12:46:58;;;;;;;;;;;;;;;;;;5088573;28;19927;-58
2023/06/23 12:49:25;;;;;;;;;;;;;;;;;;5064204;28;19928;-61
2023/06/23 12:51:52;;;;;;;;;;;;;;;;;;5079936;28;19920;-61
2023/06/23 12:54:18;;;;;;;;;;;;;;;;;;5078421;28;19932;-60
2023/06/23 12:56:44;;;;;;;;;;;;;;;;;;5082375;28;19927;-61
2023/06/23 12:59:10;;;;;;;;;;;;;;;;;;5079963;28;19947;-57
2023/06/23 13:01:36;;;;;;;;;;;;;;;;;;5078100;28;19952;-57
2023/06/23 13:04:02;;;;;;;;;;;;;;;;;;5079479;28;20035;-61
2023/06/23 13:06:28;;;;;;;;;;;;;;;;;;5077829;28;20374;-60
2023/06/23 13:08:54;;;;;;;;;;;;;;;;;;5081795;28;19924;-59
2023/06/23 13:11:21;;;;;;;;;;;;;;;;;;5081393;28;20362;-60
2023/06/23 13:13:48;;;;;;;;;;;;;;;;;;5078636;28;20394;-59
2023/06/23 13:16:14;;;;;;;;;;;;;;;;;;5080141;28;19994;-60
2023/06/23 13:18:40;;;;;;;;;;;;;;;;;;5081982;28;19920;-60
2023/06/23 13:21:05;;;;;;;;;;;;;;;;;;5079951;28;19942;-60
2023/06/23 13:23:31;;;;;;;;;;;;;;;;;;5072298;28;20016;-61
2023/06/23 13:25:57;;;;;;;;;;;;;;;;;;5078526;28;20003;-61
2023/06/23 13:28:23;;;;;;;;;;;;;;;;;;5092170;28;19931;-61
2023/06/23 13:30:49;;;;;;;;;;;;;;;;;;5091881;28;19943;-61
2023/06/23 13:33:17;;;;;;;;;;;;;;;;;;5091972;28;20014;-61
2023/06/23 13:35:43;;;;;;;;;;;;;;;;;;5091652;28;19924;-61
2023/06/23 13:38:09;;;;;;;;;;;;;;;;;;5091588;28;19931;-61
2023/06/23 13:40:35;;;;;;;;;;;;;;;;;;5092046;28;19943;-60
2023/06/23 13:43:01;;;;;;;;;;;;;;;;;;5091821;28;19924;-61
2023/06/23 13:45:27;;;;;;;;;;;;;;;;;;5090729;28;19924;-61
2023/06/23 13:47:54;;;;;;;;;;;;;;;;;;5091798;28;19920;-61
2023/06/23 13:50:20;;;;;;;;;;;;;;;;;;5083806;28;20062;-60
2023/06/23 13:52:46;;;;;;;;;;;;;;;;;;5071088;28;19999;-61
2023/06/23 13:55:12;;;;;;;;;;;;;;;;;;5071274;28;19936;-61
2023/06/23 13:57:38;;;;;;;;;;;;;;;;;;5071445;28;19948;-61
2023/06/23 14:00:08;;;;;;;;;;;;;;;;;;5071010;28;19920;-61
2023/06/23 14:02:34;;;;;;;;;;;;;;;;;;5071300;28;19920;-61
2023/06/23 14:05:00;;;;;;;;;;;;;;;;;;5053200;28;19931;-61
2023/06/23 14:07:26;;;;;;;;;;;;;;;;;;5070566;28;19921;-61
2023/06/23 14:09:51;;;;;;;;;;;;;;;;;;5071134;28;20001;-61
2023/06/23 14:12:17;;;;;;;;;;;;;;;;;;5070910;28;19928;-62
2023/06/23 14:14:43;;;;;;;;;;;;;;;;;;5070495;28;19946;-62
2023/06/23 14:17:09;;;;;;;;;;;;;;;;;;5070978;28;19927;-62
2023/06/23 14:19:35;;;;;;;;;;;;;;;;;;5070973;28;19920;-62
2023/06/23 14:22:03;;;;;;;;;;;;;;;;;;5070284;28;19927;-62
2023/06/23 14:24:29;;;;;;;;;;;;;;;;;;5070741;28;19927;-62
2023/06/23 14:26:55;;;;;;;;;;;;;;;;;;5085029;28;19924;-61
2023/06/23 14:29:21;;;;;;;;;;;;;;;;;;5090549;28;19920;-61
2023/06/23 14:31:47;;;;;;;;;;;;;;;;;;5090994;28;20007;-61
2023/06/23 14:34:13;;;;;;;;;;;;;;;;;;5090947;28;19960;-61
2023/06/23 14:36:39;;;;;;;;;;;;;;;;;;5090628;28;19920;-61
2023/06/23 14:39:05;;;;;;;;;;;;;;;;;;5090864;28;19969;-61
2023/06/23 14:41:30;;;;;;;;;;;;;;;;;;5090919;28;20006;-61
2023/06/23 14:43:56;;;;;;;;;;;;;;;;;;5090276;28;19985;-61
2023/06/23 14:46:22;;;;;;;;;;;;;;;;;;5090809;28;19928;-61
2023/06/23 14:48:48;;;;;;;;;;;;;;;;;;5090873;28;20027;-61
2023/06/23 14:51:14;;;;;;;;;;;;;;;;;;5090304;28;19920;-61
2023/06/23 14:53:42;;;;;;;;;;;;;;;;;;5090776;28;19920;-61
2023/06/23 14:56:08;;;;;;;;;;;;;;;;;;5090444;28;19924;-61
2023/06/23 14:58:34;;;;;;;;;;;;;;;;;;5071611;28;20019;-61
2023/06/23 15:01:00;;;;;;;;;;;;;;;;;;5090863;28;19942;-61
2023/06/23 15:03:26;;;;;;;;;;;;;;;;;;5090609;28;19951;-61
2023/06/23 15:05:52;;;;;;;;;;;;;;;;;;5090158;28;20396;-61
2023/06/23 15:08:18;;;;;;;;;;;;;;;;;;5090709;28;19928;-61
2023/06/23 15:10:45;;;;;;;;;;;;;;;;;;5090555;28;19920;-61
2023/06/23 15:13:11;;;;;;;;;;;;;;;;;;5089963;28;19924;-61
2023/06/23 15:15:38;;;;;;;;;;;;;;;;;;5090304;28;20737;-61
2023/06/23 15:18:04;;;;;;;;;;;;;;;;;;5090533;28;19971;-61
2023/06/23 15:20:30;;;;;;;;;;;;;;;;;;5090055;28;19975;-61
2023/06/23 15:22:56;;;;;;;;;;;;;;;;;;5090421;28;19943;-61
2023/06/23 15:25:22;;;;;;;;;;;;;;;;;;5087913;28;19932;-61
2023/06/23 15:27:48;;;;;;;;;;;;;;;;;;5070041;28;19927;-61
2023/06/23 15:30:14;;;;;;;;;;;;;;;;;;5075380;28;19960;-61
2023/06/23 15:32:40;;;;;;;;;;;;;;;;;;5090450;28;19998;-61
2023/06/23 15:35:06;;;;;;;;;;;;;;;;;;5089974;28;19924;-61
2023/06/23 15:37:32;;;;;;;;;;;;;;;;;;5089698;28;20382;-61
2023/06/23 15:39:58;;;;;;;;;;;;;;;;;;5090135;28;19928;-61
2023/06/23 15:42:25;;;;;;;;;;;;;;;;;;5090380;28;20014;-61
2023/06/23 15:44:51;;;;;;;;;;;;;;;;;;5089891;28;20717;-61
2023/06/23 15:47:18;;;;;;;;;;;;;;;;;;5090301;28;19966;-61
2023/06/23 15:49:44;;;;;;;;;;;;;;;;;;5071979;28;19920;-61
2023/06/23 15:52:10;;;;;;;;;;;;;;;;;;5089758;28;19973;-61
2023/06/23 15:54:36;;;;;;;;;;;;;;;;;;5089824;28;19924;-61
2023/06/23 15:57:02;;;;;;;;;;;;;;;;;;5090240;28;20383;-61
2023/06/23 15:59:28;;;;;;;;;;;;;;;;;;5089595;28;19927;-62
2023/06/23 16:01:54;;;;;;;;;;;;;;;;;;5090353;28;19920;-61
2023/06/23 16:04:20;;;;;;;;;;;;;;;;;;5090072;28;19947;-61
2023/06/23 16:06:46;;;;;;;;;;;;;;;;;;5089629;28;20004;-61
2023/06/23 16:09:12;;;;;;;;;;;;;;;;;;5073634;28;20406;-61
2023/06/23 16:11:37;;;;;;;;;;;;;;;;;;5094135;28;19973;-61
2023/06/23 16:14:03;;;;;;;;;;;;;;;;;;5092843;28;20477;-61
2023/06/23 16:16:29;;;;;;;;;;;;;;;;;;5093442;28;19994;-61
2023/06/23 16:18:55;;;;;;;;;;;;;;;;;;5093717;28;19920;-61
2023/06/23 16:21:21;;;;;;;;;;;;;;;;;;5092909;28;19924;-61
2023/06/23 16:23:47;;;;;;;;;;;;;;;;;;5075403;28;19931;-61
2023/06/23 16:26:13;;;;;;;;;;;;;;;;;;5066021;28;19993;-61
2023/06/23 16:28:39;;;;;;;;;;;;;;;;;;5072842;28;19924;-61
2023/06/23 16:31:05;;;;;;;;;;;;;;;;;;5085685;28;20041;-61
2023/06/23 16:33:32;;;;;;;;;;;;;;;;;;5093273;28;19924;-61
2023/06/23 16:35:58;;;;;;;;;;;;;;;;;;5092631;28;19931;-61
2023/06/23 16:38:24;;;;;;;;;;;;;;;;;;5093200;28;20631;-61